createdAt,value
2023-03-19T00:02:52.165Z,17.00
2023-03-19T00:07:55.049Z,16.80
2023-03-19T00:12:59.303Z,17.40
2023-03-19T00:18:02.100Z,16.40
2023-03-19T00:23:04.891Z,16.20
2023-03-19T00:28:09.153Z,17.60
2023-03-19T00:33:12.469Z,16.40
2023-03-19T00:38:15.515Z,19.60
2023-03-19T00:43:20.101Z,15.60
2023-03-19T00:48:23.164Z,15.80
2023-03-19T00:53:26.113Z,15.40
2023-03-19T00:58:30.269Z,16.60
2023-03-19T01:03:33.016Z,13.20
2023-03-19T01:08:35.810Z,15.80
2023-03-19T01:13:40.037Z,16.20
2023-03-19T01:18:42.871Z,16.40
2023-03-19T01:23:45.871Z,14.80
2023-03-19T01:28:50.470Z,15.60
2023-03-19T01:33:55.771Z,15.40
2023-03-19T01:39:16.564Z,17.80
2023-03-19T01:44:30.537Z,16.00
2023-03-19T01:49:53.805Z,14.60
2023-03-19T01:54:57.790Z,15.80
2023-03-19T02:00:25.249Z,13.60
2023-03-19T02:05:29.751Z,13.40
2023-03-19T02:10:38.859Z,15.40
2023-03-19T02:15:43.227Z,12.60
2023-03-19T02:20:49.515Z,13.00
2023-03-19T02:25:59.592Z,13.40
2023-03-19T02:31:02.435Z,12.00
2023-03-19T02:36:07.503Z,12.40
2023-03-19T02:41:11.790Z,15.00
2023-03-19T02:46:15.536Z,11.00
2023-03-19T02:51:19.854Z,13.40
2023-03-19T02:56:24.069Z,12.00
2023-03-19T03:01:26.922Z,13.40
2023-03-19T03:06:29.751Z,14.60
2023-03-19T03:11:34.025Z,12.00
2023-03-19T03:16:37.724Z,12.00
2023-03-19T03:21:41.181Z,14.20
2023-03-19T03:26:45.642Z,11.20
2023-03-19T03:31:48.506Z,12.00
2023-03-19T03:36:52.045Z,13.20
2023-03-19T03:41:56.279Z,11.60
2023-03-19T03:46:59.231Z,14.20
2023-03-19T03:52:02.119Z,10.60
2023-03-19T03:57:06.551Z,14.80
2023-03-19T04:02:09.574Z,11.00
2023-03-19T04:07:13.028Z,14.00
2023-03-19T04:12:21.746Z,11.80
2023-03-19T04:17:24.721Z,11.40
2023-03-19T04:22:27.697Z,11.80
2023-03-19T04:27:31.856Z,11.40
2023-03-19T04:32:35.478Z,12.80
2023-03-19T04:37:38.335Z,11.00
2023-03-19T04:42:44.565Z,11.40
2023-03-19T04:48:02.285Z,12.00
2023-03-19T04:53:06.807Z,11.00
2023-03-19T04:58:11.808Z,10.60
2023-03-19T05:03:16.626Z,10.40
2023-03-19T05:08:20.345Z,10.40
2023-03-19T05:13:24.804Z,14.40
2023-03-19T05:18:29.678Z,11.20
2023-03-19T05:23:33.008Z,10.00
2023-03-19T05:28:43.724Z,10.80
2023-03-19T05:33:47.915Z,11.40
2023-03-19T05:38:51.207Z,10.00
2023-03-19T05:44:02.763Z,13.60
2023-03-19T05:49:20.864Z,12.80
2023-03-19T05:54:23.700Z,12.00
2023-03-19T05:59:38.115Z,11.00
2023-03-19T06:05:01.224Z,11.00
2023-03-19T06:10:07.619Z,14.00
2023-03-19T06:15:12.710Z,10.80
2023-03-19T06:20:21.855Z,10.00
2023-03-19T06:25:25.719Z,11.00
2023-03-19T06:30:29.921Z,12.20
2023-03-19T06:35:35.659Z,10.00
2023-03-19T06:40:38.595Z,10.00
2023-03-19T06:45:42.770Z,10.60
2023-03-19T06:50:46.452Z,11.20
2023-03-19T06:55:49.216Z,9.40
2023-03-19T07:00:53.502Z,9.40
2023-03-19T07:05:56.279Z,11.00
2023-03-19T07:11:03.895Z,9.00
2023-03-19T07:16:08.932Z,10.80
2023-03-19T07:21:11.812Z,10.20
2023-03-19T07:26:14.604Z,10.00
2023-03-19T07:31:18.724Z,11.40
2023-03-19T07:36:22.547Z,10.60
2023-03-19T07:41:25.721Z,11.60
2023-03-19T07:46:29.814Z,9.40
2023-03-19T07:51:32.620Z,10.00
2023-03-19T07:56:36.120Z,10.80
2023-03-19T08:01:40.538Z,9.60
2023-03-19T08:06:43.277Z,31.60
2023-03-19T08:11:46.097Z,30.25
2023-03-19T08:16:50.278Z,25.60
2023-03-19T08:21:53.062Z,25.60
2023-03-19T08:26:56.299Z,25.20
2023-03-19T08:32:01.383Z,21.00
2023-03-19T08:37:04.212Z,22.80
2023-03-19T08:42:07.331Z,21.00
2023-03-19T08:47:12.173Z,19.60
2023-03-19T08:52:14.934Z,18.40
2023-03-19T08:57:17.729Z,18.80
2023-03-19T09:02:22.046Z,19.40
2023-03-19T09:07:24.806Z,18.60
2023-03-19T09:12:27.651Z,19.00
2023-03-19T09:17:31.768Z,16.60
2023-03-19T09:22:34.760Z,17.40
2023-03-19T09:27:37.658Z,16.60
2023-03-19T09:32:42.047Z,16.60
2023-03-19T09:37:44.902Z,14.80
2023-03-19T09:42:54.183Z,17.60
2023-03-19T09:47:59.796Z,16.60
2023-03-19T09:53:04.628Z,19.20
2023-03-19T09:58:12.096Z,19.40
2023-03-19T10:03:26.563Z,18.00
2023-03-19T10:08:42.324Z,18.40
2023-03-19T10:13:53.771Z,22.00
2023-03-19T10:18:59.950Z,21.00
2023-03-19T10:24:04.624Z,19.80
2023-03-19T10:29:09.262Z,18.40
2023-03-19T10:34:32.749Z,18.00
2023-03-19T10:39:36.287Z,16.00
2023-03-19T10:44:41.421Z,19.20
2023-03-19T10:49:45.506Z,18.80
2023-03-19T10:54:48.268Z,14.80
2023-03-19T10:59:51.341Z,18.80
2023-03-19T11:05:07.588Z,20.00
2023-03-19T11:10:13.942Z,19.60
2023-03-19T11:15:19.694Z,19.20
2023-03-19T11:20:27.848Z,18.60
2023-03-19T11:25:32.100Z,21.60
2023-03-19T11:30:43.014Z,17.20
2023-03-19T11:35:50.002Z,21.80
2023-03-19T11:40:54.954Z,21.40
2023-03-19T11:46:02.750Z,20.40
2023-03-19T11:51:08.286Z,20.80
2023-03-19T11:56:15.460Z,19.20
2023-03-19T12:01:25.310Z,16.40
2023-03-19T12:06:35.666Z,18.60
2023-03-19T12:11:41.306Z,16.00
2023-03-19T12:16:52.948Z,15.80
2023-03-19T12:22:03.016Z,16.00
2023-03-19T12:27:09.319Z,13.40
2023-03-19T12:32:17.720Z,12.80
2023-03-19T12:37:24.821Z,11.80
2023-03-19T12:42:29.652Z,11.00
2023-03-19T12:47:33.902Z,10.00
2023-03-19T12:52:38.993Z,10.00
2023-03-19T12:57:44.015Z,9.20
2023-03-19T13:02:49.405Z,10.00
2023-03-19T13:07:58.553Z,8.80
2023-03-19T13:13:01.681Z,10.60
2023-03-19T13:18:09.737Z,7.80
2023-03-19T13:23:15.559Z,6.20
2023-03-19T13:28:22.048Z,7.20
2023-03-19T13:33:24.940Z,7.00
2023-03-19T13:38:31.761Z,6.00
2023-03-19T13:43:44.037Z,7.40
2023-03-19T13:48:50.998Z,6.20
2023-03-19T13:53:55.771Z,3.00
2023-03-19T13:59:23.719Z,5.60
2023-03-19T14:04:27.953Z,5.80
2023-03-19T14:09:40.068Z,5.20
2023-03-19T14:14:43.054Z,5.20
2023-03-19T14:19:46.301Z,6.00
2023-03-19T14:24:58.280Z,6.00
2023-03-19T14:30:03.013Z,4.80
2023-03-19T14:35:06.222Z,5.00
2023-03-19T14:40:12.278Z,5.60
2023-03-19T14:45:38.189Z,5.40
2023-03-19T14:51:14.324Z,4.60
2023-03-19T14:56:21.652Z,5.20
2023-03-19T15:01:26.896Z,4.20
2023-03-19T15:06:32.473Z,4.80
2023-03-19T15:11:43.292Z,5.80
2023-03-19T15:16:48.785Z,5.40
2023-03-19T15:21:51.708Z,4.60
2023-03-19T15:26:55.911Z,4.40
2023-03-19T15:32:05.101Z,5.80
2023-03-19T15:37:10.226Z,4.20
2023-03-19T15:42:14.623Z,4.80
2023-03-19T15:47:18.904Z,5.60
2023-03-19T15:52:21.814Z,5.20
2023-03-19T15:57:25.948Z,3.00
2023-03-19T16:02:30.734Z,5.80
2023-03-19T16:07:40.217Z,3.00
2023-03-19T16:12:44.609Z,3.00
2023-03-19T16:17:49.157Z,3.00
2023-03-19T16:22:54.200Z,4.80
2023-03-19T16:27:58.475Z,7.00
2023-03-19T16:33:01.681Z,3.00
2023-03-19T16:38:08.064Z,4.80
2023-03-19T16:43:18.371Z,3.20
2023-03-19T16:48:21.289Z,3.00
2023-03-19T16:53:25.656Z,2.80
2023-03-19T16:58:32.292Z,3.00
2023-03-19T17:03:35.439Z,3.80
2023-03-19T17:08:38.270Z,2.20
2023-03-19T17:13:43.804Z,3.20
2023-03-19T17:18:47.907Z,4.80
2023-03-19T17:23:50.722Z,3.00
2023-03-19T17:28:55.287Z,4.00
2023-03-19T17:33:59.614Z,3.80
2023-03-19T17:39:02.886Z,3.00
2023-03-19T17:44:07.292Z,3.60
2023-03-19T17:49:14.062Z,4.20
2023-03-19T17:54:16.941Z,4.00
2023-03-19T17:59:21.054Z,3.00
2023-03-19T18:04:23.917Z,3.00
2023-03-19T18:09:28.355Z,5.20
2023-03-19T18:14:32.645Z,3.80
2023-03-19T18:19:36.984Z,3.60
2023-03-19T18:24:39.832Z,2.80
2023-03-19T18:29:44.062Z,3.40
2023-03-19T18:34:46.986Z,3.60
2023-03-19T18:39:49.980Z,3.00
2023-03-19T18:44:54.248Z,4.60
2023-03-19T18:49:57.722Z,3.80
2023-03-19T18:55:00.760Z,3.60
2023-03-19T19:00:05.731Z,4.60
2023-03-19T19:05:14.789Z,3.80
2023-03-19T19:10:18.029Z,3.80
2023-03-19T19:15:24.236Z,3.40
2023-03-19T19:20:27.840Z,3.80
2023-03-19T19:25:30.745Z,5.40
2023-03-19T19:30:35.393Z,5.00
2023-03-19T19:35:38.517Z,3.20
2023-03-19T19:40:41.972Z,4.00
2023-03-19T19:45:46.721Z,6.20
2023-03-19T19:50:49.840Z,4.00
2023-03-19T19:55:52.696Z,3.20
2023-03-19T20:01:03.917Z,3.00
2023-03-19T20:06:07.549Z,6.00
2023-03-19T20:11:15.416Z,3.20
2023-03-19T20:16:19.900Z,5.40
2023-03-19T20:21:22.851Z,4.00
2023-03-19T20:26:25.814Z,3.60
2023-03-19T20:31:31.080Z,4.40
2023-03-19T20:36:33.963Z,3.60
2023-03-19T20:41:36.928Z,4.20
2023-03-19T20:46:41.041Z,4.00
2023-03-19T20:51:43.852Z,6.00
2023-03-19T20:56:47.654Z,6.60
2023-03-19T21:01:52.696Z,5.00
2023-03-19T21:06:57.435Z,3.60
2023-03-19T21:12:00.472Z,5.00
2023-03-19T21:17:04.760Z,5.00
2023-03-19T21:22:07.496Z,4.00
2023-03-19T21:27:10.479Z,7.00
2023-03-19T21:32:18.158Z,4.00
2023-03-19T21:37:20.937Z,3.20
2023-03-19T21:42:23.878Z,3.80
2023-03-19T21:47:28.329Z,3.60
2023-03-19T21:52:31.135Z,4.00
2023-03-19T21:57:34.009Z,4.20
2023-03-19T22:02:41.629Z,6.00
2023-03-19T22:07:44.438Z,6.60
2023-03-19T22:12:47.236Z,3.00
2023-03-19T22:17:51.345Z,5.40
2023-03-19T22:22:55.311Z,3.20
2023-03-19T22:27:58.144Z,4.00
2023-03-19T22:33:02.402Z,4.00
2023-03-19T22:38:05.447Z,3.20
2023-03-19T22:43:18.424Z,3.00
2023-03-19T22:48:22.991Z,6.00
2023-03-19T22:53:27.279Z,3.00
2023-03-19T22:58:30.079Z,4.60
2023-03-19T23:03:34.984Z,3.60
2023-03-19T23:08:37.750Z,3.20
2023-03-19T23:13:40.640Z,5.00
2023-03-19T23:18:44.717Z,3.60
2023-03-19T23:23:47.532Z,2.40
2023-03-19T23:28:50.490Z,3.60
2023-03-19T23:33:54.650Z,4.00
2023-03-19T23:38:59.252Z,2.80
2023-03-19T23:44:03.497Z,1.60
2023-03-19T23:49:12.122Z,2.60
2023-03-19T23:54:26.826Z,3.00
2023-03-19T23:59:31.876Z,2.80
